Terminal Aerodrome Forecast
Issued by NWS

Home | Current Version | Previous Version | Text Only | Print | Product List | Glossary On
Versions: 1 2 3 4 5 6 7 8 9 10 11 12 13 14 15 16
000
FTUS43 KAPX 251120
TAFPLN
TAF
KPLN 251120Z 2512/2612 07009KT P6SM BKN022
     FM251600 08012KT P6SM BKN100
     FM252000 09013KT P6SM SCT250
     FM260200 09013G21KT P6SM VCSH BKN090
     FM260400 10013G22KT P6SM -RA OVC040
     FM260600 10013G21KT 3SM -FZRA BR OVC025
     FM260700 10013G22KT 3SM RA OVC015=

USA.gov is the U.S. government's official web portal to all federal, state and local government web resources and services.